sensor_id;sensor_type;location;lat;lon;timestamp;pressure;altitude;pressure_sealevel;temperature;humidity
48553;BME280;34335;51.566;6.994;2023-12-20T00:00:48;100890.84;;;6.55;100.00
48553;BME280;34335;51.566;6.994;2023-12-20T00:03:13;100894.41;;;6.62;100.00
48553;BME280;34335;51.566;6.994;2023-12-20T00:05:39;100901.22;;;6.57;100.00
48553;BME280;34335;51.566;6.994;2023-12-20T00:08:04;100893.44;;;6.55;100.00
48553;BME280;34335;51.566;6.994;2023-12-20T00:10:30;100895.13;;;6.53;100.00
48553;BME280;34335;51.566;6.994;2023-12-20T00:12:55;100902.06;;;6.54;100.00
48553;BME280;34335;51.566;6.994;2023-12-20T00:15:20;100899.47;;;6.55;100.00
48553;BME280;34335;51.566;6.994;2023-12-20T00:17:45;100895.06;;;6.48;100.00
48553;BME280;34335;51.566;6.994;2023-12-20T00:20:11;100902.72;;;6.44;100.00
48553;BME280;34335;51.566;6.994;2023-12-20T00:22:36;100898.41;;;6.44;100.00
48553;BME280;34335;51.566;6.994;2023-12-20T00:25:01;100901.66;;;6.34;100.00
48553;BME280;34335;51.566;6.994;2023-12-20T00:27:26;100913.72;;;6.35;100.00
48553;BME280;34335;51.566;6.994;2023-12-20T00:29:52;100915.47;;;6.36;100.00
48553;BME280;34335;51.566;6.994;2023-12-20T00:32:17;100920.63;;;6.34;100.00
48553;BME280;34335;51.566;6.994;2023-12-20T00:34:43;100912.81;;;6.31;100.00
48553;BME280;34335;51.566;6.994;2023-12-20T00:37:08;100918.06;;;6.36;100.00
48553;BME280;34335;51.566;6.994;2023-12-20T00:39:33;100917.16;;;6.34;100.00
48553;BME280;34335;51.566;6.994;2023-12-20T00:41:59;100920.31;;;6.20;100.00
48553;BME280;34335;51.566;6.994;2023-12-20T00:44:24;100931.72;;;6.30;100.00
48553;BME280;34335;51.566;6.994;2023-12-20T00:46:49;100929.13;;;6.29;100.00
48553;BME280;34335;51.566;6.994;2023-12-20T00:49:14;100934.13;;;6.21;100.00
48553;BME280;34335;51.566;6.994;2023-12-20T00:51:40;100925.47;;;6.20;100.00
48553;BME280;34335;51.566;6.994;2023-12-20T00:54:05;100940.03;;;6.15;100.00
48553;BME280;34335;51.566;6.994;2023-12-20T00:56:30;100927.94;;;6.14;100.00
48553;BME280;34335;51.566;6.994;2023-12-20T00:58:55;100932.28;;;6.15;100.00
48553;BME280;34335;51.566;6.994;2023-12-20T01:01:21;100930.59;;;6.17;100.00
48553;BME280;34335;51.566;6.994;2023-12-20T01:03:46;100933.09;;;6.14;100.00
48553;BME280;34335;51.566;6.994;2023-12-20T01:06:11;100927.00;;;6.09;100.00
48553;BME280;34335;51.566;6.994;2023-12-20T01:08:37;100923.69;;;6.16;100.00
48553;BME280;34335;51.566;6.994;2023-12-20T01:11:06;100927.09;;;6.15;100.00
48553;BME280;34335;51.566;6.994;2023-12-20T01:13:31;100924.41;;;6.09;100.00
48553;BME280;34335;51.566;6.994;2023-12-20T01:15:56;100925.25;;;6.08;100.00
48553;BME280;34335;51.566;6.994;2023-12-20T01:18:22;100931.16;;;6.04;100.00
48553;BME280;34335;51.566;6.994;2023-12-20T01:20:47;100940.69;;;6.06;100.00
48553;BME280;34335;51.566;6.994;2023-12-20T01:23:12;100937.22;;;6.04;100.00
48553;BME280;34335;51.566;6.994;2023-12-20T01:25:37;100939.06;;;6.10;100.00
48553;BME280;34335;51.566;6.994;2023-12-20T01:28:03;100931.97;;;6.00;100.00
48553;BME280;34335;51.566;6.994;2023-12-20T01:30:28;100942.06;;;5.90;100.00
48553;BME280;34335;51.566;6.994;2023-12-20T01:32:53;100945.41;;;5.86;100.00
48553;BME280;34335;51.566;6.994;2023-12-20T01:35:19;100939.31;;;5.84;100.00
48553;BME280;34335;51.566;6.994;2023-12-20T01:37:44;100934.88;;;5.77;100.00
48553;BME280;34335;51.566;6.994;2023-12-20T01:40:10;100948.56;;;5.74;100.00
48553;BME280;34335;51.566;6.994;2023-12-20T01:42:35;100948.47;;;5.70;100.00
48553;BME280;34335;51.566;6.994;2023-12-20T01:45:00;100943.97;;;5.61;100.00
48553;BME280;34335;51.566;6.994;2023-12-20T01:47:26;100935.50;;;5.67;100.00
48553;BME280;34335;51.566;6.994;2023-12-20T01:49:51;100936.22;;;5.61;100.00
48553;BME280;34335;51.566;6.994;2023-12-20T01:52:16;100925.81;;;5.58;100.00
48553;BME280;34335;51.566;6.994;2023-12-20T01:54:42;100927.63;;;5.60;100.00
48553;BME280;34335;51.566;6.994;2023-12-20T01:57:08;100931.06;;;5.61;100.00
48553;BME280;34335;51.566;6.994;2023-12-20T01:59:34;100940.53;;;5.60;100.00
48553;BME280;34335;51.566;6.994;2023-12-20T02:01:59;100941.19;;;5.53;100.00
48553;BME280;34335;51.566;6.994;2023-12-20T02:04:25;100941.13;;;5.50;100.00
48553;BME280;34335;51.566;6.994;2023-12-20T02:06:52;100946.22;;;5.47;100.00
48553;BME280;34335;51.566;6.994;2023-12-20T02:09:18;100939.41;;;5.49;100.00
48553;BME280;34335;51.566;6.994;2023-12-20T02:11:43;100929.81;;;5.45;100.00
48553;BME280;34335;51.566;6.994;2023-12-20T02:14:09;100940.94;;;5.42;100.00
48553;BME280;34335;51.566;6.994;2023-12-20T02:16:34;100941.06;;;5.47;100.00
48553;BME280;34335;51.566;6.994;2023-12-20T02:18:59;100935.91;;;5.47;100.00
48553;BME280;34335;51.566;6.994;2023-12-20T02:21:25;100931.53;;;5.44;100.00
48553;BME280;34335;51.566;6.994;2023-12-20T02:23:50;100936.78;;;5.48;100.00
48553;BME280;34335;51.566;6.994;2023-12-20T02:26:16;100937.66;;;5.48;100.00
48553;BME280;34335;51.566;6.994;2023-12-20T02:28:41;100934.16;;;5.46;100.00
48553;BME280;34335;51.566;6.994;2023-12-20T02:31:07;100936.91;;;5.54;100.00
48553;BME280;34335;51.566;6.994;2023-12-20T02:33:32;100934.22;;;5.49;100.00
48553;BME280;34335;51.566;6.994;2023-12-20T02:35:57;100951.47;;;5.50;100.00
48553;BME280;34335;51.566;6.994;2023-12-20T02:38:22;100946.22;;;5.47;100.00
48553;BME280;34335;51.566;6.994;2023-12-20T02:40:48;100936.69;;;5.43;100.00
48553;BME280;34335;51.566;6.994;2023-12-20T02:43:13;100946.09;;;5.41;100.00
48553;BME280;34335;51.566;6.994;2023-12-20T02:45:38;100938.25;;;5.38;100.00
48553;BME280;34335;51.566;6.994;2023-12-20T02:48:04;100938.22;;;5.36;100.00
48553;BME280;34335;51.566;6.994;2023-12-20T02:50:29;100932.13;;;5.33;100.00
48553;BME280;34335;51.566;6.994;2023-12-20T02:52:54;100928.78;;;5.37;100.00
48553;BME280;34335;51.566;6.994;2023-12-20T02:55:19;100937.84;;;5.21;100.00
48553;BME280;34335;51.566;6.994;2023-12-20T02:57:45;100938.72;;;5.21;100.00
48553;BME280;34335;51.566;6.994;2023-12-20T03:00:10;100940.38;;;5.19;100.00
48553;BME280;34335;51.566;6.994;2023-12-20T03:02:36;100932.78;;;5.25;100.00
48553;BME280;34335;51.566;6.994;2023-12-20T03:05:02;100934.41;;;5.20;100.00
48553;BME280;34335;51.566;6.994;2023-12-20T03:07:27;100931.75;;;5.17;100.00
48553;BME280;34335;51.566;6.994;2023-12-20T03:09:52;100930.81;;;5.15;100.00
48553;BME280;34335;51.566;6.994;2023-12-20T03:12:17;100935.09;;;5.13;100.00
48553;BME280;34335;51.566;6.994;2023-12-20T03:14:43;100932.44;;;5.11;100.00
48553;BME280;34335;51.566;6.994;2023-12-20T03:17:09;100935.09;;;5.13;100.00
48553;BME280;34335;51.566;6.994;2023-12-20T03:19:34;100927.19;;;5.07;100.00
48553;BME280;34335;51.566;6.994;2023-12-20T03:21:59;100927.91;;;5.01;100.00
48553;BME280;34335;51.566;6.994;2023-12-20T03:24:24;100924.38;;;4.97;100.00
48553;BME280;34335;51.566;6.994;2023-12-20T03:26:50;100931.84;;;4.87;100.00
48553;BME280;34335;51.566;6.994;2023-12-20T03:29:15;100934.44;;;4.88;100.00
48553;BME280;34335;51.566;6.994;2023-12-20T03:31:40;100927.66;;;4.92;100.00
48553;BME280;34335;51.566;6.994;2023-12-20T03:34:05;100932.66;;;4.84;100.00
48553;BME280;34335;51.566;6.994;2023-12-20T03:36:31;100930.06;;;4.84;100.00
48553;BME280;34335;51.566;6.994;2023-12-20T03:38:56;100925.50;;;4.74;100.00
48553;BME280;34335;51.566;6.994;2023-12-20T03:41:21;100928.06;;;4.74;100.00
48553;BME280;34335;51.566;6.994;2023-12-20T03:43:46;100927.06;;;4.68;100.00
48553;BME280;34335;51.566;6.994;2023-12-20T03:46:12;100927.25;;;4.75;100.00
48553;BME280;34335;51.566;6.994;2023-12-20T03:48:37;100928.09;;;4.75;100.00
48553;BME280;34335;51.566;6.994;2023-12-20T03:51:02;100918.59;;;4.73;100.00
48553;BME280;34335;51.566;6.994;2023-12-20T03:53:27;100920.16;;;4.67;100.00
48553;BME280;34335;51.566;6.994;2023-12-20T03:55:52;100926.09;;;4.63;100.00
48553;BME280;34335;51.566;6.994;2023-12-20T03:58:18;100934.78;;;4.68;100.00
48553;BME280;34335;51.566;6.994;2023-12-20T04:00:43;100931.44;;;4.71;100.00
48553;BME280;34335;51.566;6.994;2023-12-20T04:03:08;100932.41;;;4.75;100.00
48553;BME280;34335;51.566;6.994;2023-12-20T04:05:33;100926.28;;;4.71;100.00
48553;BME280;34335;51.566;6.994;2023-12-20T04:08:01;100920.25;;;4.71;100.00
48553;BME280;34335;51.566;6.994;2023-12-20T04:10:26;100922.94;;;4.75;100.00
48553;BME280;34335;51.566;6.994;2023-12-20T04:12:53;100914.38;;;4.75;100.00
48553;BME280;34335;51.566;6.994;2023-12-20T04:15:18;100915.84;;;4.66;100.00
48553;BME280;34335;51.566;6.994;2023-12-20T04:17:43;100912.41;;;4.66;100.00
48553;BME280;34335;51.566;6.994;2023-12-20T04:20:09;100914.28;;;4.72;100.00
48553;BME280;34335;51.566;6.994;2023-12-20T04:22:34;100905.63;;;4.70;100.00
48553;BME280;34335;51.566;6.994;2023-12-20T04:24:59;100922.34;;;4.52;100.00
48553;BME280;34335;51.566;6.994;2023-12-20T04:27:28;100910.31;;;4.52;100.00
48553;BME280;34335;51.566;6.994;2023-12-20T04:29:53;100911.44;;;4.62;100.00
48553;BME280;34335;51.566;6.994;2023-12-20T04:32:18;100917.56;;;4.66;100.00
48553;BME280;34335;51.566;6.994;2023-12-20T04:34:44;100923.53;;;4.65;100.00
48553;BME280;34335;51.566;6.994;2023-12-20T04:37:09;100921.91;;;4.68;100.00
48553;BME280;34335;51.566;6.994;2023-12-20T04:39:34;100922.75;;;4.67;100.00
48553;BME280;34335;51.566;6.994;2023-12-20T04:41:59;100925.50;;;4.74;100.00
48553;BME280;34335;51.566;6.994;2023-12-20T04:44:25;100922.00;;;4.72;100.00
48553;BME280;34335;51.566;6.994;2023-12-20T04:46:50;100922.09;;;4.75;100.00
48553;BME280;34335;51.566;6.994;2023-12-20T04:49:15;100925.56;;;4.77;100.00
48553;BME280;34335;51.566;6.994;2023-12-20T04:51:40;100925.41;;;4.71;100.00
48553;BME280;34335;51.566;6.994;2023-12-20T04:54:06;100927.88;;;4.66;100.00
48553;BME280;34335;51.566;6.994;2023-12-20T04:56:31;100930.41;;;4.64;100.00
48553;BME280;34335;51.566;6.994;2023-12-20T04:58:56;100925.16;;;4.61;100.00
48553;BME280;34335;51.566;6.994;2023-12-20T05:01:21;100920.09;;;4.64;100.00
48553;BME280;34335;51.566;6.994;2023-12-20T05:03:47;100920.84;;;4.60;100.00
48553;BME280;34335;51.566;6.994;2023-12-20T05:06:12;100918.16;;;4.57;100.00
48553;BME280;34335;51.566;6.994;2023-12-20T05:08:37;100922.63;;;4.63;100.00
48553;BME280;34335;51.566;6.994;2023-12-20T05:11:03;100921.91;;;4.68;100.00
48553;BME280;34335;51.566;6.994;2023-12-20T05:13:28;100926.13;;;4.65;100.00
48553;BME280;34335;51.566;6.994;2023-12-20T05:15:53;100925.16;;;4.61;100.00
48553;BME280;34335;51.566;6.994;2023-12-20T05:18:20;100923.56;;;4.66;100.00
48553;BME280;34335;51.566;6.994;2023-12-20T05:20:46;100920.22;;;4.69;100.00
48553;BME280;34335;51.566;6.994;2023-12-20T05:23:11;100928.19;;;4.78;100.00
48553;BME280;34335;51.566;6.994;2023-12-20T05:25:36;100923.06;;;4.80;100.00
48553;BME280;34335;51.566;6.994;2023-12-20T05:28:01;100922.09;;;4.75;100.00
48553;BME280;34335;51.566;6.994;2023-12-20T05:30:27;100911.69;;;4.72;100.00
48553;BME280;34335;51.566;6.994;2023-12-20T05:32:52;100902.31;;;4.74;100.00
48553;BME280;34335;51.566;6.994;2023-12-20T05:35:17;100885.22;;;4.77;100.00
48553;BME280;34335;51.566;6.994;2023-12-20T05:37:43;100898.22;;;4.82;100.00
48553;BME280;34335;51.566;6.994;2023-12-20T05:40:08;100892.16;;;4.80;100.00
48553;BME280;34335;51.566;6.994;2023-12-20T05:42:37;100898.19;;;4.80;100.00
48553;BME280;34335;51.566;6.994;2023-12-20T05:45:02;100892.16;;;4.80;100.00
48553;BME280;34335;51.566;6.994;2023-12-20T05:47:27;100901.75;;;4.86;100.00
48553;BME280;34335;51.566;6.994;2023-12-20T05:49:53;100904.41;;;4.89;100.00
48553;BME280;34335;51.566;6.994;2023-12-20T05:52:18;100924.13;;;4.88;100.00
48553;BME280;34335;51.566;6.994;2023-12-20T05:54:43;100908.56;;;4.83;100.00
48553;BME280;34335;51.566;6.994;2023-12-20T05:57:08;100909.31;;;4.79;100.00
48553;BME280;34335;51.566;6.994;2023-12-20T05:59:34;100899.84;;;4.78;100.00
48553;BME280;34335;51.566;6.994;2023-12-20T06:01:59;100901.72;;;4.84;100.00
48553;BME280;34335;51.566;6.994;2023-12-20T06:04:24;100890.50;;;4.82;100.00
48553;BME280;34335;51.566;6.994;2023-12-20T06:06:49;100892.13;;;4.78;100.00
48553;BME280;34335;51.566;6.994;2023-12-20T06:09:15;100898.97;;;4.78;100.00
48553;BME280;34335;51.566;6.994;2023-12-20T06:11:40;100908.44;;;4.79;100.00
48553;BME280;34335;51.566;6.994;2023-12-20T06:14:05;100905.84;;;4.77;100.00
48553;BME280;34335;51.566;6.994;2023-12-20T06:16:31;100912.72;;;4.78;100.00
48553;BME280;34335;51.566;6.994;2023-12-20T06:18:56;100914.53;;;4.82;100.00
48553;BME280;34335;51.566;6.994;2023-12-20T06:21:21;100901.66;;;4.82;100.00
48553;BME280;34335;51.566;6.994;2023-12-20T06:23:46;100905.03;;;4.80;100.00
48553;BME280;34335;51.566;6.994;2023-12-20T06:26:12;100907.63;;;4.81;100.00
48553;BME280;34335;51.566;6.994;2023-12-20T06:28:37;100922.34;;;4.84;100.00
48553;BME280;34335;51.566;6.994;2023-12-20T06:31:02;100907.69;;;4.83;100.00
48553;BME280;34335;51.566;6.994;2023-12-20T06:33:27;100899.13;;;4.84;100.00
48553;BME280;34335;51.566;6.994;2023-12-20T06:35:53;100898.31;;;4.85;100.00
48553;BME280;34335;51.566;6.994;2023-12-20T06:38:18;100904.28;;;4.84;100.00
48553;BME280;34335;51.566;6.994;2023-12-20T06:40:44;100906.03;;;4.85;100.00
48553;BME280;34335;51.566;6.994;2023-12-20T06:43:10;100913.09;;;4.92;100.00
48553;BME280;34335;51.566;6.994;2023-12-20T06:45:35;100912.16;;;4.90;100.00
48553;BME280;34335;51.566;6.994;2023-12-20T06:48:00;100912.25;;;4.93;100.00
48553;BME280;34335;51.566;6.994;2023-12-20T06:50:25;100921.56;;;4.88;100.00
48553;BME280;34335;51.566;6.994;2023-12-20T06:52:51;100907.09;;;4.93;100.00
48553;BME280;34335;51.566;6.994;2023-12-20T06:55:16;100907.97;;;4.94;100.00
48553;BME280;34335;51.566;6.994;2023-12-20T06:57:41;100903.72;;;4.96;100.00
48553;BME280;34335;51.566;6.994;2023-12-20T07:00:07;100905.50;;;4.98;100.00
48553;BME280;34335;51.566;6.994;2023-12-20T07:02:32;100902.91;;;4.98;100.00
48553;BME280;34335;51.566;6.994;2023-12-20T07:04:57;100897.03;;;5.03;100.00
48553;BME280;34335;51.566;6.994;2023-12-20T07:07:23;100895.28;;;5.02;100.00
48553;BME280;34335;51.566;6.994;2023-12-20T07:09:50;100891.88;;;5.03;100.00
48553;BME280;34335;51.566;6.994;2023-12-20T07:12:16;100882.50;;;5.06;100.00
48553;BME280;34335;51.566;6.994;2023-12-20T07:14:41;100887.78;;;5.11;100.00
48553;BME280;34335;51.566;6.994;2023-12-20T07:17:06;100902.41;;;5.12;100.00
48553;BME280;34335;51.566;6.994;2023-12-20T07:19:31;100901.72;;;5.19;100.00
48553;BME280;34335;51.566;6.994;2023-12-20T07:21:57;100896.59;;;5.21;100.00
48553;BME280;34335;51.566;6.994;2023-12-20T07:24:22;100891.47;;;5.22;100.00
48553;BME280;34335;51.566;6.994;2023-12-20T07:26:47;100890.69;;;5.25;100.00
48553;BME280;34335;51.566;6.994;2023-12-20T07:29:12;100898.44;;;5.26;100.00
48553;BME280;34335;51.566;6.994;2023-12-20T07:31:38;100900.28;;;5.30;100.00
48553;BME280;34335;51.566;6.994;2023-12-20T07:34:03;100908.00;;;5.30;100.00
48553;BME280;34335;51.566;6.994;2023-12-20T07:36:28;100905.44;;;5.30;100.00
48553;BME280;34335;51.566;6.994;2023-12-20T07:38:53;100902.84;;;5.30;100.00
48553;BME280;34335;51.566;6.994;2023-12-20T07:41:19;100899.44;;;5.32;100.00
48553;BME280;34335;51.566;6.994;2023-12-20T07:43:44;100897.72;;;5.32;100.00
48553;BME280;34335;51.566;6.994;2023-12-20T07:46:09;100906.38;;;5.34;100.00
48553;BME280;34335;51.566;6.994;2023-12-20T07:48:35;100902.03;;;5.33;100.00
48553;BME280;34335;51.566;6.994;2023-12-20T07:51:01;100896.06;;;5.34;100.00
48553;BME280;34335;51.566;6.994;2023-12-20T07:53:26;100907.22;;;5.35;100.00
48553;BME280;34335;51.566;6.994;2023-12-20T07:55:52;100908.09;;;5.34;100.00
48553;BME280;34335;51.566;6.994;2023-12-20T07:58:17;100916.00;;;5.41;100.00
48553;BME280;34335;51.566;6.994;2023-12-20T08:00:42;100905.66;;;5.40;100.00
48553;BME280;34335;51.566;6.994;2023-12-20T08:03:07;100898.72;;;5.37;100.00
48553;BME280;34335;51.566;6.994;2023-12-20T08:05:33;100888.56;;;5.45;100.00
48553;BME280;34335;51.566;6.994;2023-12-20T08:07:58;100900.66;;;5.48;100.00
48553;BME280;34335;51.566;6.994;2023-12-20T08:10:24;100882.63;;;5.49;100.00
48553;BME280;34335;51.566;6.994;2023-12-20T08:12:49;100906.56;;;5.42;100.00
48553;BME280;34335;51.566;6.994;2023-12-20T08:15:14;100891.09;;;5.42;100.00
48553;BME280;34335;51.566;6.994;2023-12-20T08:17:40;100895.34;;;5.41;100.00
48553;BME280;34335;51.566;6.994;2023-12-20T08:20:05;100894.53;;;5.44;100.00
48553;BME280;34335;51.566;6.994;2023-12-20T08:22:31;100902.28;;;5.44;100.00
48553;BME280;34335;51.566;6.994;2023-12-20T08:24:56;100892.88;;;5.46;100.00
48553;BME280;34335;51.566;6.994;2023-12-20T08:27:21;100894.59;;;5.45;100.00
48553;BME280;34335;51.566;6.994;2023-12-20T08:29:46;100896.34;;;5.46;100.00
48553;BME280;34335;51.566;6.994;2023-12-20T08:32:12;100890.28;;;5.44;100.00
48553;BME280;34335;51.566;6.994;2023-12-20T08:34:37;100900.69;;;5.49;100.00
48553;BME280;34335;51.566;6.994;2023-12-20T08:37:02;100904.94;;;5.47;100.00
48553;BME280;34335;51.566;6.994;2023-12-20T08:39:28;100906.78;;;5.51;100.00
48553;BME280;34335;51.566;6.994;2023-12-20T08:41:53;100914.44;;;5.50;100.00
48553;BME280;34335;51.566;6.994;2023-12-20T08:44:18;100911.84;;;5.48;100.00
48553;BME280;34335;51.566;6.994;2023-12-20T08:46:43;100903.28;;;5.49;100.00
48553;BME280;34335;51.566;6.994;2023-12-20T08:49:09;100909.28;;;5.50;100.00
48553;BME280;34335;51.566;6.994;2023-12-20T08:51:34;100892.16;;;5.52;100.00
48553;BME280;34335;51.566;6.994;2023-12-20T08:54:00;100904.22;;;5.53;100.00
48553;BME280;34335;51.566;6.994;2023-12-20T08:56:25;100896.44;;;5.51;100.00
48553;BME280;34335;51.566;6.994;2023-12-20T08:58:50;100898.97;;;5.50;100.00
48553;BME280;34335;51.566;6.994;2023-12-20T09:01:16;100895.53;;;5.49;100.00
48553;BME280;34335;51.566;6.994;2023-12-20T09:03:41;100903.34;;;5.52;100.00
48553;BME280;34335;51.566;6.994;2023-12-20T09:06:06;100894.84;;;5.56;100.00
48553;BME280;34335;51.566;6.994;2023-12-20T09:08:32;100892.16;;;5.52;100.00
48553;BME280;34335;51.566;6.994;2023-12-20T09:10:57;100881.84;;;5.52;100.00
48553;BME280;34335;51.566;6.994;2023-12-20T09:13:22;100884.31;;;5.49;100.00
48553;BME280;34335;51.566;6.994;2023-12-20T09:15:48;100881.75;;;5.49;100.00
48553;BME280;34335;51.566;6.994;2023-12-20T09:18:13;100881.81;;;5.50;100.00
48553;BME280;34335;51.566;6.994;2023-12-20T09:20:38;100877.47;;;5.49;100.00
48553;BME280;34335;51.566;6.994;2023-12-20T09:23:03;100875.00;;;5.54;100.00
48553;BME280;34335;51.566;6.994;2023-12-20T09:25:29;100877.47;;;5.49;100.00
48553;BME280;34335;51.566;6.994;2023-12-20T09:27:54;100872.31;;;5.49;100.00
48553;BME280;34335;51.566;6.994;2023-12-20T09:30:19;100870.56;;;5.48;100.00
48553;BME280;34335;51.566;6.994;2023-12-20T09:32:45;100876.78;;;5.56;100.00
48553;BME280;34335;51.566;6.994;2023-12-20T09:35:10;100875.88;;;5.54;100.00
48553;BME280;34335;51.566;6.994;2023-12-20T09:37:35;100876.88;;;5.61;100.00
48553;BME280;34335;51.566;6.994;2023-12-20T09:40:01;100879.47;;;5.61;100.00
48553;BME280;34335;51.566;6.994;2023-12-20T09:42:51;100868.28;;;5.60;100.00
48553;BME280;34335;51.566;6.994;2023-12-20T09:45:21;100880.38;;;5.65;100.00
48553;BME280;34335;51.566;6.994;2023-12-20T09:47:46;100881.31;;;5.67;100.00
48553;BME280;34335;51.566;6.994;2023-12-20T09:50:12;100870.97;;;5.67;100.00
48553;BME280;34335;51.566;6.994;2023-12-20T09:52:38;100881.41;;;5.71;100.00
48553;BME280;34335;51.566;6.994;2023-12-20T09:55:05;100883.97;;;5.70;100.00
48553;BME280;34335;51.566;6.994;2023-12-20T09:57:32;100878.00;;;5.74;100.00
48553;BME280;34335;51.566;6.994;2023-12-20T09:59:57;100884.91;;;5.75;100.00
48553;BME280;34335;51.566;6.994;2023-12-20T10:02:24;100891.81;;;5.76;100.00
48553;BME280;34335;51.566;6.994;2023-12-20T10:04:50;100881.59;;;5.79;100.00
48553;BME280;34335;51.566;6.994;2023-12-20T10:07:15;100875.50;;;5.77;100.00
48553;BME280;34335;51.566;6.994;2023-12-20T10:09:41;100877.25;;;5.78;100.00
48553;BME280;34335;51.566;6.994;2023-12-20T10:12:07;100897.09;;;5.81;100.00
48553;BME280;34335;51.566;6.994;2023-12-20T10:14:32;100891.00;;;5.78;100.00
48553;BME280;34335;51.566;6.994;2023-12-20T10:17:04;100887.47;;;5.73;100.00
48553;BME280;34335;51.566;6.994;2023-12-20T10:19:31;100887.41;;;5.70;100.00
48553;BME280;34335;51.566;6.994;2023-12-20T10:21:58;100878.00;;;5.74;100.00
48553;BME280;34335;51.566;6.994;2023-12-20T10:24:24;100872.00;;;5.73;100.00
48553;BME280;34335;51.566;6.994;2023-12-20T10:27:01;100855.63;;;5.73;100.00
48553;BME280;34335;51.566;6.994;2023-12-20T10:29:26;100871.97;;;5.72;100.00
48553;BME280;34335;51.566;6.994;2023-12-20T10:31:51;100852.19;;;5.72;100.00
48553;BME280;34335;51.566;6.994;2023-12-20T10:34:17;100862.56;;;5.75;100.00
48553;BME280;34335;51.566;6.994;2023-12-20T10:36:42;100866.13;;;5.81;100.00
48553;BME280;34335;51.566;6.994;2023-12-20T10:39:08;100865.19;;;5.78;100.00
48553;BME280;34335;51.566;6.994;2023-12-20T10:41:36;100867.84;;;5.80;100.00
48553;BME280;34335;51.566;6.994;2023-12-20T10:44:03;100867.78;;;5.78;100.00
48553;BME280;34335;51.566;6.994;2023-12-20T10:46:30;100862.69;;;5.80;100.00
48553;BME280;34335;51.566;6.994;2023-12-20T10:48:56;100862.69;;;5.80;100.00
48553;BME280;34335;51.566;6.994;2023-12-20T10:51:23;100856.69;;;5.83;100.00
48553;BME280;34335;51.566;6.994;2023-12-20T10:53:50;100842.03;;;5.80;100.00
48553;BME280;34335;51.566;6.994;2023-12-20T10:56:17;100844.72;;;5.85;100.00
48553;BME280;34335;51.566;6.994;2023-12-20T10:58:43;100859.38;;;5.87;100.00
48553;BME280;34335;51.566;6.994;2023-12-20T11:01:09;100856.06;;;5.93;100.00
48553;BME280;34335;51.566;6.994;2023-12-20T11:03:36;100851.09;;;6.01;100.00
48553;BME280;34335;51.566;6.994;2023-12-20T11:06:10;100858.03;;;6.03;100.00
48553;BME280;34335;51.566;6.994;2023-12-20T11:08:47;100858.03;;;6.05;100.00
48553;BME280;34335;51.566;6.994;2023-12-20T11:11:29;100845.09;;;6.03;100.00
48553;BME280;34335;51.566;6.994;2023-12-20T11:14:02;100853.84;;;6.10;100.00
48553;BME280;34335;51.566;6.994;2023-12-20T11:16:31;100853.78;;;6.07;100.00
48553;BME280;34335;51.566;6.994;2023-12-20T11:18:56;100851.09;;;6.01;100.00
48553;BME280;34335;51.566;6.994;2023-12-20T11:21:21;100845.97;;;6.04;100.00
48553;BME280;34335;51.566;6.994;2023-12-20T11:23:47;100838.81;;;5.90;100.00
48553;BME280;34335;51.566;6.994;2023-12-20T11:26:15;100843.06;;;5.88;100.00
48553;BME280;34335;51.566;6.994;2023-12-20T11:28:41;100833.56;;;5.87;100.00
48553;BME280;34335;51.566;6.994;2023-12-20T11:31:06;100835.25;;;5.85;100.00
48553;BME280;34335;51.566;6.994;2023-12-20T11:33:38;100835.31;;;5.88;100.00
48553;BME280;34335;51.566;6.994;2023-12-20T11:36:03;100835.22;;;5.84;100.00
48553;BME280;34335;51.566;6.994;2023-12-20T11:38:37;100834.28;;;5.80;100.00
48553;BME280;34335;51.566;6.994;2023-12-20T11:41:05;100836.03;;;5.81;100.00
48553;BME280;34335;51.566;6.994;2023-12-20T11:43:38;100817.25;;;5.88;100.00
48553;BME280;34335;51.566;6.994;2023-12-20T11:46:05;100826.59;;;5.83;100.00
48553;BME280;34335;51.566;6.994;2023-12-20T11:48:30;100824.19;;;5.92;100.00
48553;BME280;34335;51.566;6.994;2023-12-20T11:50:56;100824.97;;;5.88;100.00
48553;BME280;34335;51.566;6.994;2023-12-20T11:53:21;100826.78;;;5.92;100.00
48553;BME280;34335;51.566;6.994;2023-12-20T11:55:50;100814.69;;;5.90;100.00
48553;BME280;34335;51.566;6.994;2023-12-20T11:58:16;100824.06;;;5.86;100.00
48553;BME280;34335;51.566;6.994;2023-12-20T12:00:42;100814.59;;;5.85;100.00
48553;BME280;34335;51.566;6.994;2023-12-20T12:03:07;100805.06;;;5.81;100.00
48553;BME280;34335;51.566;6.994;2023-12-20T12:05:33;100805.00;;;5.80;100.00
48553;BME280;34335;51.566;6.994;2023-12-20T12:07:58;100799.00;;;5.81;100.00
48553;BME280;34335;51.566;6.994;2023-12-20T12:10:23;100805.00;;;5.78;100.00
48553;BME280;34335;51.566;6.994;2023-12-20T12:12:49;100804.97;;;5.76;100.00
48553;BME280;34335;51.566;6.994;2023-12-20T12:15:14;100792.91;;;5.77;100.00
48553;BME280;34335;51.566;6.994;2023-12-20T12:17:40;100791.19;;;5.76;100.00
48553;BME280;34335;51.566;6.994;2023-12-20T12:20:06;100799.00;;;5.81;100.00
48553;BME280;34335;51.566;6.994;2023-12-20T12:22:31;100783.63;;;5.85;100.00
48553;BME280;34335;51.566;6.994;2023-12-20T12:24:59;100796.59;;;5.88;100.00
48553;BME280;34335;51.566;6.994;2023-12-20T12:27:34;100793.19;;;5.91;100.00
48553;BME280;34335;51.566;6.994;2023-12-20T12:30:04;100792.38;;;5.93;100.00
48553;BME280;34335;51.566;6.994;2023-12-20T12:32:30;100794.16;;;5.96;100.00
48553;BME280;34335;51.566;6.994;2023-12-20T12:34:55;100795.94;;;5.99;100.00
48553;BME280;34335;51.566;6.994;2023-12-20T12:37:22;100796.00;;;6.02;100.00
48553;BME280;34335;51.566;6.994;2023-12-20T12:39:47;100786.53;;;6.01;100.00
48553;BME280;34335;51.566;6.994;2023-12-20T12:42:13;100790.91;;;6.05;100.00